sensor_id;sensor_type;location;lat;lon;timestamp;temperature;humidity
27226;DHT22;14732;51.074;3.788;2024-01-15T00:01:29;4.00;99.90
27226;DHT22;14732;51.074;3.788;2024-01-15T00:03:55;3.80;99.90
27226;DHT22;14732;51.074;3.788;2024-01-15T00:06:20;4.00;99.90
27226;DHT22;14732;51.074;3.788;2024-01-15T00:08:46;4.20;99.90
27226;DHT22;14732;51.074;3.788;2024-01-15T00:11:12;4.30;99.90
27226;DHT22;14732;51.074;3.788;2024-01-15T00:13:37;4.10;99.90
27226;DHT22;14732;51.074;3.788;2024-01-15T00:16:04;3.90;99.90
27226;DHT22;14732;51.074;3.788;2024-01-15T00:18:30;4.00;99.90
27226;DHT22;14732;51.074;3.788;2024-01-15T00:20:56;4.10;99.90
27226;DHT22;14732;51.074;3.788;2024-01-15T00:23:22;4.00;99.90
27226;DHT22;14732;51.074;3.788;2024-01-15T00:25:48;4.30;99.90
27226;DHT22;14732;51.074;3.788;2024-01-15T00:28:14;4.40;99.90
27226;DHT22;14732;51.074;3.788;2024-01-15T00:30:39;4.50;99.90
27226;DHT22;14732;51.074;3.788;2024-01-15T00:33:05;4.70;99.90
27226;DHT22;14732;51.074;3.788;2024-01-15T00:35:31;4.80;99.90
27226;DHT22;14732;51.074;3.788;2024-01-15T00:37:56;4.90;99.90
27226;DHT22;14732;51.074;3.788;2024-01-15T00:40:22;4.80;99.90
27226;DHT22;14732;51.074;3.788;2024-01-15T00:42:47;4.90;99.90
27226;DHT22;14732;51.074;3.788;2024-01-15T00:45:13;5.10;99.90
27226;DHT22;14732;51.074;3.788;2024-01-15T00:47:39;4.90;99.90
27226;DHT22;14732;51.074;3.788;2024-01-15T00:50:05;4.90;99.90
27226;DHT22;14732;51.074;3.788;2024-01-15T00:52:31;4.70;99.90
27226;DHT22;14732;51.074;3.788;2024-01-15T00:54:56;4.70;99.90
27226;DHT22;14732;51.074;3.788;2024-01-15T00:57:22;4.80;99.90
27226;DHT22;14732;51.074;3.788;2024-01-15T00:59:47;4.70;99.90
27226;DHT22;14732;51.074;3.788;2024-01-15T01:02:13;5.00;99.90
27226;DHT22;14732;51.074;3.788;2024-01-15T01:04:40;4.70;99.90
27226;DHT22;14732;51.074;3.788;2024-01-15T01:07:06;4.60;99.90
27226;DHT22;14732;51.074;3.788;2024-01-15T01:09:31;4.80;99.90
27226;DHT22;14732;51.074;3.788;2024-01-15T01:11:57;4.70;99.90
27226;DHT22;14732;51.074;3.788;2024-01-15T01:14:23;4.70;99.90
27226;DHT22;14732;51.074;3.788;2024-01-15T01:16:49;4.60;99.90
27226;DHT22;14732;51.074;3.788;2024-01-15T01:19:15;4.60;99.90
27226;DHT22;14732;51.074;3.788;2024-01-15T01:21:40;4.50;99.90
27226;DHT22;14732;51.074;3.788;2024-01-15T01:24:06;4.50;99.90
27226;DHT22;14732;51.074;3.788;2024-01-15T01:26:32;4.50;99.90
27226;DHT22;14732;51.074;3.788;2024-01-15T01:28:57;4.50;99.90
27226;DHT22;14732;51.074;3.788;2024-01-15T01:31:23;4.60;99.90
27226;DHT22;14732;51.074;3.788;2024-01-15T01:33:49;4.70;99.90
27226;DHT22;14732;51.074;3.788;2024-01-15T01:36:15;4.60;99.90
27226;DHT22;14732;51.074;3.788;2024-01-15T01:38:41;4.70;99.90
27226;DHT22;14732;51.074;3.788;2024-01-15T01:41:06;4.70;99.90
27226;DHT22;14732;51.074;3.788;2024-01-15T01:43:33;4.60;99.90
27226;DHT22;14732;51.074;3.788;2024-01-15T01:46:00;4.70;99.90
27226;DHT22;14732;51.074;3.788;2024-01-15T01:48:26;4.70;99.90
27226;DHT22;14732;51.074;3.788;2024-01-15T01:50:58;4.70;99.90
27226;DHT22;14732;51.074;3.788;2024-01-15T01:53:26;4.80;99.90
27226;DHT22;14732;51.074;3.788;2024-01-15T01:55:53;4.80;99.90
27226;DHT22;14732;51.074;3.788;2024-01-15T01:58:20;4.80;99.90
27226;DHT22;14732;51.074;3.788;2024-01-15T02:00:46;4.60;99.90
27226;DHT22;14732;51.074;3.788;2024-01-15T02:03:12;4.40;99.90
27226;DHT22;14732;51.074;3.788;2024-01-15T02:05:39;4.40;99.90
27226;DHT22;14732;51.074;3.788;2024-01-15T02:08:05;4.60;99.90
27226;DHT22;14732;51.074;3.788;2024-01-15T02:10:31;4.60;99.90
27226;DHT22;14732;51.074;3.788;2024-01-15T02:12:57;4.70;99.90
27226;DHT22;14732;51.074;3.788;2024-01-15T02:15:23;4.80;99.90
27226;DHT22;14732;51.074;3.788;2024-01-15T02:18:00;4.90;99.90
27226;DHT22;14732;51.074;3.788;2024-01-15T02:20:26;4.90;99.90
27226;DHT22;14732;51.074;3.788;2024-01-15T02:22:52;4.90;99.90
27226;DHT22;14732;51.074;3.788;2024-01-15T02:25:18;4.80;99.90
27226;DHT22;14732;51.074;3.788;2024-01-15T02:27:45;4.80;99.90
27226;DHT22;14732;51.074;3.788;2024-01-15T02:30:12;4.90;99.90
27226;DHT22;14732;51.074;3.788;2024-01-15T02:32:38;4.70;99.90
27226;DHT22;14732;51.074;3.788;2024-01-15T02:35:04;4.60;99.90
27226;DHT22;14732;51.074;3.788;2024-01-15T02:37:30;4.60;99.90
27226;DHT22;14732;51.074;3.788;2024-01-15T02:39:56;4.50;99.90
27226;DHT22;14732;51.074;3.788;2024-01-15T02:42:21;4.60;99.90
27226;DHT22;14732;51.074;3.788;2024-01-15T02:44:47;4.40;99.90
27226;DHT22;14732;51.074;3.788;2024-01-15T02:47:14;4.40;99.90
27226;DHT22;14732;51.074;3.788;2024-01-15T02:49:40;4.50;99.90
27226;DHT22;14732;51.074;3.788;2024-01-15T02:52:06;4.30;99.90
27226;DHT22;14732;51.074;3.788;2024-01-15T02:54:31;4.30;99.90
27226;DHT22;14732;51.074;3.788;2024-01-15T02:56:57;4.40;99.90
27226;DHT22;14732;51.074;3.788;2024-01-15T02:59:23;4.50;99.90
27226;DHT22;14732;51.074;3.788;2024-01-15T03:01:48;4.50;99.90
27226;DHT22;14732;51.074;3.788;2024-01-15T03:04:14;4.60;99.90
27226;DHT22;14732;51.074;3.788;2024-01-15T03:06:40;4.50;99.90
27226;DHT22;14732;51.074;3.788;2024-01-15T03:09:05;4.60;99.90
27226;DHT22;14732;51.074;3.788;2024-01-15T03:11:40;4.50;99.90
27226;DHT22;14732;51.074;3.788;2024-01-15T03:14:06;4.50;99.90
27226;DHT22;14732;51.074;3.788;2024-01-15T03:16:31;4.50;99.90
27226;DHT22;14732;51.074;3.788;2024-01-15T03:18:57;4.50;99.90
27226;DHT22;14732;51.074;3.788;2024-01-15T03:21:23;4.40;99.90
27226;DHT22;14732;51.074;3.788;2024-01-15T03:23:48;4.50;99.90
27226;DHT22;14732;51.074;3.788;2024-01-15T03:26:14;4.60;99.90
27226;DHT22;14732;51.074;3.788;2024-01-15T03:28:40;4.60;99.90
27226;DHT22;14732;51.074;3.788;2024-01-15T03:31:07;4.50;99.90
27226;DHT22;14732;51.074;3.788;2024-01-15T03:33:33;4.40;99.90
27226;DHT22;14732;51.074;3.788;2024-01-15T03:35:59;4.50;99.90
27226;DHT22;14732;51.074;3.788;2024-01-15T03:38:27;4.50;99.90
27226;DHT22;14732;51.074;3.788;2024-01-15T03:40:52;4.50;99.90
27226;DHT22;14732;51.074;3.788;2024-01-15T03:43:18;4.30;99.90
27226;DHT22;14732;51.074;3.788;2024-01-15T03:45:44;4.30;99.90
27226;DHT22;14732;51.074;3.788;2024-01-15T03:48:09;4.20;99.90
27226;DHT22;14732;51.074;3.788;2024-01-15T03:50:35;4.10;99.90
27226;DHT22;14732;51.074;3.788;2024-01-15T03:53:01;4.20;99.90
27226;DHT22;14732;51.074;3.788;2024-01-15T03:55:26;4.30;99.90
27226;DHT22;14732;51.074;3.788;2024-01-15T03:57:52;4.20;99.90
27226;DHT22;14732;51.074;3.788;2024-01-15T04:00:18;4.20;99.90
27226;DHT22;14732;51.074;3.788;2024-01-15T04:02:43;4.10;99.90
27226;DHT22;14732;51.074;3.788;2024-01-15T04:05:10;4.10;99.90
27226;DHT22;14732;51.074;3.788;2024-01-15T04:07:36;4.00;99.90
27226;DHT22;14732;51.074;3.788;2024-01-15T04:10:02;3.80;99.90
27226;DHT22;14732;51.074;3.788;2024-01-15T04:12:28;3.80;99.90
27226;DHT22;14732;51.074;3.788;2024-01-15T04:14:54;3.80;99.90
27226;DHT22;14732;51.074;3.788;2024-01-15T04:17:19;3.70;99.90
27226;DHT22;14732;51.074;3.788;2024-01-15T04:19:46;3.60;99.90
27226;DHT22;14732;51.074;3.788;2024-01-15T04:22:13;3.60;99.90
27226;DHT22;14732;51.074;3.788;2024-01-15T04:24:39;3.60;99.90
27226;DHT22;14732;51.074;3.788;2024-01-15T04:27:05;3.70;99.90
27226;DHT22;14732;51.074;3.788;2024-01-15T04:29:31;3.70;99.90
27226;DHT22;14732;51.074;3.788;2024-01-15T04:31:57;3.70;99.90
27226;DHT22;14732;51.074;3.788;2024-01-15T04:34:23;3.60;99.90
27226;DHT22;14732;51.074;3.788;2024-01-15T04:36:48;3.60;99.90
27226;DHT22;14732;51.074;3.788;2024-01-15T04:39:14;3.40;99.90
27226;DHT22;14732;51.074;3.788;2024-01-15T04:41:39;3.40;99.90
27226;DHT22;14732;51.074;3.788;2024-01-15T04:44:05;3.30;99.90
27226;DHT22;14732;51.074;3.788;2024-01-15T04:46:31;3.30;99.90
27226;DHT22;14732;51.074;3.788;2024-01-15T04:48:56;3.40;99.90
27226;DHT22;14732;51.074;3.788;2024-01-15T04:51:22;3.40;99.90
27226;DHT22;14732;51.074;3.788;2024-01-15T04:53:48;3.40;99.90
27226;DHT22;14732;51.074;3.788;2024-01-15T04:56:13;3.20;99.90
27226;DHT22;14732;51.074;3.788;2024-01-15T04:58:39;3.30;99.90
27226;DHT22;14732;51.074;3.788;2024-01-15T05:01:05;3.30;99.90
27226;DHT22;14732;51.074;3.788;2024-01-15T05:03:30;3.30;99.90
27226;DHT22;14732;51.074;3.788;2024-01-15T05:05:56;3.20;99.90
27226;DHT22;14732;51.074;3.788;2024-01-15T05:08:21;3.30;99.90
27226;DHT22;14732;51.074;3.788;2024-01-15T05:10:47;3.20;99.90
27226;DHT22;14732;51.074;3.788;2024-01-15T05:13:13;3.10;99.90
27226;DHT22;14732;51.074;3.788;2024-01-15T05:15:39;3.10;99.90
27226;DHT22;14732;51.074;3.788;2024-01-15T05:18:05;3.10;99.90
27226;DHT22;14732;51.074;3.788;2024-01-15T05:20:31;3.10;99.90
27226;DHT22;14732;51.074;3.788;2024-01-15T05:22:57;3.00;99.90
27226;DHT22;14732;51.074;3.788;2024-01-15T05:25:22;3.00;99.90
27226;DHT22;14732;51.074;3.788;2024-01-15T05:27:48;3.10;99.90
27226;DHT22;14732;51.074;3.788;2024-01-15T05:30:14;3.00;99.90
27226;DHT22;14732;51.074;3.788;2024-01-15T05:32:40;2.90;99.90
27226;DHT22;14732;51.074;3.788;2024-01-15T05:35:06;3.00;99.90
27226;DHT22;14732;51.074;3.788;2024-01-15T05:37:31;2.90;99.90
27226;DHT22;14732;51.074;3.788;2024-01-15T05:39:57;2.90;99.90
27226;DHT22;14732;51.074;3.788;2024-01-15T05:42:23;3.00;99.90
27226;DHT22;14732;51.074;3.788;2024-01-15T05:44:48;3.00;99.90
27226;DHT22;14732;51.074;3.788;2024-01-15T05:47:14;2.90;99.90
27226;DHT22;14732;51.074;3.788;2024-01-15T05:49:40;2.80;99.90
27226;DHT22;14732;51.074;3.788;2024-01-15T05:52:05;2.90;99.90
27226;DHT22;14732;51.074;3.788;2024-01-15T05:54:31;3.00;99.90
27226;DHT22;14732;51.074;3.788;2024-01-15T05:56:57;3.00;99.90
27226;DHT22;14732;51.074;3.788;2024-01-15T05:59:23;3.00;99.90
27226;DHT22;14732;51.074;3.788;2024-01-15T06:01:48;3.00;99.90
27226;DHT22;14732;51.074;3.788;2024-01-15T06:04:14;2.90;99.90
27226;DHT22;14732;51.074;3.788;2024-01-15T06:06:40;2.90;99.90
27226;DHT22;14732;51.074;3.788;2024-01-15T06:09:05;2.80;99.90
27226;DHT22;14732;51.074;3.788;2024-01-15T06:11:31;3.00;99.90
27226;DHT22;14732;51.074;3.788;2024-01-15T06:13:57;3.00;99.90
27226;DHT22;14732;51.074;3.788;2024-01-15T06:16:24;3.00;99.90
27226;DHT22;14732;51.074;3.788;2024-01-15T06:18:50;2.80;99.90
27226;DHT22;14732;51.074;3.788;2024-01-15T06:21:16;2.90;99.90
27226;DHT22;14732;51.074;3.788;2024-01-15T06:23:41;2.90;99.90
27226;DHT22;14732;51.074;3.788;2024-01-15T06:26:07;2.80;99.90
27226;DHT22;14732;51.074;3.788;2024-01-15T06:28:33;2.80;99.90
27226;DHT22;14732;51.074;3.788;2024-01-15T06:30:59;2.80;99.90
27226;DHT22;14732;51.074;3.788;2024-01-15T06:33:25;2.70;99.90
27226;DHT22;14732;51.074;3.788;2024-01-15T06:35:50;2.70;99.90
27226;DHT22;14732;51.074;3.788;2024-01-15T06:38:16;2.60;99.90
27226;DHT22;14732;51.074;3.788;2024-01-15T06:40:42;2.60;99.90
27226;DHT22;14732;51.074;3.788;2024-01-15T06:43:14;2.70;99.90
27226;DHT22;14732;51.074;3.788;2024-01-15T06:45:46;2.80;99.90
27226;DHT22;14732;51.074;3.788;2024-01-15T06:48:11;2.80;99.90
27226;DHT22;14732;51.074;3.788;2024-01-15T06:50:42;2.60;99.90
27226;DHT22;14732;51.074;3.788;2024-01-15T06:53:08;2.70;99.90
27226;DHT22;14732;51.074;3.788;2024-01-15T06:55:33;2.80;99.90
27226;DHT22;14732;51.074;3.788;2024-01-15T06:57:59;2.80;99.90
27226;DHT22;14732;51.074;3.788;2024-01-15T07:00:25;2.80;99.90
27226;DHT22;14732;51.074;3.788;2024-01-15T07:02:51;2.80;99.90
27226;DHT22;14732;51.074;3.788;2024-01-15T07:05:17;3.10;99.90
27226;DHT22;14732;51.074;3.788;2024-01-15T07:07:43;2.90;99.90
27226;DHT22;14732;51.074;3.788;2024-01-15T07:10:09;2.90;99.90
27226;DHT22;14732;51.074;3.788;2024-01-15T07:12:35;2.80;99.90
27226;DHT22;14732;51.074;3.788;2024-01-15T07:15:01;2.80;99.90
27226;DHT22;14732;51.074;3.788;2024-01-15T07:17:27;2.90;99.90
27226;DHT22;14732;51.074;3.788;2024-01-15T07:19:53;2.90;99.90
27226;DHT22;14732;51.074;3.788;2024-01-15T07:22:18;2.90;99.90
27226;DHT22;14732;51.074;3.788;2024-01-15T07:24:45;2.90;99.90
27226;DHT22;14732;51.074;3.788;2024-01-15T07:27:11;3.10;99.90
27226;DHT22;14732;51.074;3.788;2024-01-15T07:29:37;3.00;99.90
27226;DHT22;14732;51.074;3.788;2024-01-15T07:32:03;2.80;99.90
27226;DHT22;14732;51.074;3.788;2024-01-15T07:34:29;2.80;99.90
27226;DHT22;14732;51.074;3.788;2024-01-15T07:36:55;2.80;99.90
27226;DHT22;14732;51.074;3.788;2024-01-15T07:39:20;2.80;99.90
27226;DHT22;14732;51.074;3.788;2024-01-15T07:41:48;2.90;99.90
27226;DHT22;14732;51.074;3.788;2024-01-15T07:44:13;2.80;99.90
27226;DHT22;14732;51.074;3.788;2024-01-15T07:46:43;2.70;99.90
27226;DHT22;14732;51.074;3.788;2024-01-15T07:49:10;2.60;99.90
27226;DHT22;14732;51.074;3.788;2024-01-15T07:51:36;2.70;99.90
27226;DHT22;14732;51.074;3.788;2024-01-15T07:54:02;2.70;99.90
27226;DHT22;14732;51.074;3.788;2024-01-15T07:56:27;2.70;99.90
27226;DHT22;14732;51.074;3.788;2024-01-15T07:58:53;2.70;99.90
27226;DHT22;14732;51.074;3.788;2024-01-15T08:01:19;3.00;99.90
27226;DHT22;14732;51.074;3.788;2024-01-15T08:03:44;3.00;99.90
27226;DHT22;14732;51.074;3.788;2024-01-15T08:06:10;2.90;99.90
27226;DHT22;14732;51.074;3.788;2024-01-15T08:08:37;2.90;99.90
27226;DHT22;14732;51.074;3.788;2024-01-15T08:11:02;2.80;99.90
27226;DHT22;14732;51.074;3.788;2024-01-15T08:13:28;2.80;99.90
27226;DHT22;14732;51.074;3.788;2024-01-15T08:15:54;3.00;99.90
27226;DHT22;14732;51.074;3.788;2024-01-15T08:18:19;3.00;99.90
27226;DHT22;14732;51.074;3.788;2024-01-15T08:20:47;3.10;99.90
27226;DHT22;14732;51.074;3.788;2024-01-15T08:23:13;3.00;99.90
27226;DHT22;14732;51.074;3.788;2024-01-15T08:25:38;3.10;99.90
27226;DHT22;14732;51.074;3.788;2024-01-15T08:28:04;3.00;99.90
27226;DHT22;14732;51.074;3.788;2024-01-15T08:30:30;3.00;99.90
27226;DHT22;14732;51.074;3.788;2024-01-15T08:32:56;3.10;99.90
27226;DHT22;14732;51.074;3.788;2024-01-15T08:35:22;3.00;99.90
27226;DHT22;14732;51.074;3.788;2024-01-15T08:37:52;3.20;99.90
27226;DHT22;14732;51.074;3.788;2024-01-15T08:40:18;3.40;99.90
27226;DHT22;14732;51.074;3.788;2024-01-15T08:42:44;3.50;99.90
27226;DHT22;14732;51.074;3.788;2024-01-15T08:45:11;3.60;99.90
27226;DHT22;14732;51.074;3.788;2024-01-15T08:47:37;3.70;99.90
27226;DHT22;14732;51.074;3.788;2024-01-15T08:50:04;3.80;99.90
27226;DHT22;14732;51.074;3.788;2024-01-15T08:52:30;3.80;99.90
27226;DHT22;14732;51.074;3.788;2024-01-15T08:54:56;3.80;99.90
27226;DHT22;14732;51.074;3.788;2024-01-15T08:57:22;3.90;99.90
27226;DHT22;14732;51.074;3.788;2024-01-15T08:59:47;4.00;99.90
27226;DHT22;14732;51.074;3.788;2024-01-15T09:02:13;3.90;99.90
27226;DHT22;14732;51.074;3.788;2024-01-15T09:04:39;4.00;99.90
27226;DHT22;14732;51.074;3.788;2024-01-15T09:07:05;4.10;99.90
27226;DHT22;14732;51.074;3.788;2024-01-15T09:09:30;4.00;99.90
27226;DHT22;14732;51.074;3.788;2024-01-15T09:11:56;4.00;99.90
27226;DHT22;14732;51.074;3.788;2024-01-15T09:14:22;4.00;99.90
27226;DHT22;14732;51.074;3.788;2024-01-15T09:16:50;3.90;99.90
27226;DHT22;14732;51.074;3.788;2024-01-15T09:19:16;4.20;99.90
27226;DHT22;14732;51.074;3.788;2024-01-15T09:21:41;4.00;99.90
27226;DHT22;14732;51.074;3.788;2024-01-15T09:24:07;3.90;99.90
27226;DHT22;14732;51.074;3.788;2024-01-15T09:26:33;3.90;99.90
27226;DHT22;14732;51.074;3.788;2024-01-15T09:28:58;4.10;99.90
27226;DHT22;14732;51.074;3.788;2024-01-15T09:31:24;4.60;99.90
27226;DHT22;14732;51.074;3.788;2024-01-15T09:33:50;5.80;99.90
27226;DHT22;14732;51.074;3.788;2024-01-15T09:36:22;7.50;99.90
27226;DHT22;14732;51.074;3.788;2024-01-15T09:38:48;8.80;99.90
27226;DHT22;14732;51.074;3.788;2024-01-15T09:41:14;9.20;99.90
27226;DHT22;14732;51.074;3.788;2024-01-15T09:43:40;8.80;99.90
27226;DHT22;14732;51.074;3.788;2024-01-15T09:46:06;8.20;99.90
27226;DHT22;14732;51.074;3.788;2024-01-15T09:48:32;7.30;99.90
27226;DHT22;14732;51.074;3.788;2024-01-15T09:51:01;6.40;99.90
27226;DHT22;14732;51.074;3.788;2024-01-15T09:53:27;6.00;99.90
27226;DHT22;14732;51.074;3.788;2024-01-15T09:55:53;5.50;99.90
27226;DHT22;14732;51.074;3.788;2024-01-15T09:58:19;4.90;99.90
27226;DHT22;14732;51.074;3.788;2024-01-15T10:00:47;4.50;99.90
27226;DHT22;14732;51.074;3.788;2024-01-15T10:03:15;4.40;99.90
27226;DHT22;14732;51.074;3.788;2024-01-15T10:05:41;4.30;99.90
27226;DHT22;14732;51.074;3.788;2024-01-15T10:08:07;4.30;99.90
27226;DHT22;14732;51.074;3.788;2024-01-15T10:10:32;4.30;99.90
27226;DHT22;14732;51.074;3.788;2024-01-15T10:12:58;4.30;99.90
27226;DHT22;14732;51.074;3.788;2024-01-15T10:15:28;4.30;99.90
27226;DHT22;14732;51.074;3.788;2024-01-15T10:17:54;4.30;99.90
27226;DHT22;14732;51.074;3.788;2024-01-15T10:20:20;4.20;99.90
27226;DHT22;14732;51.074;3.788;2024-01-15T10:22:50;4.40;99.90
27226;DHT22;14732;51.074;3.788;2024-01-15T10:25:16;4.50;99.90
27226;DHT22;14732;51.074;3.788;2024-01-15T10:28:02;4.40;99.90
27226;DHT22;14732;51.074;3.788;2024-01-15T10:30:29;4.30;99.90
27226;DHT22;14732;51.074;3.788;2024-01-15T10:32:59;4.20;99.90
27226;DHT22;14732;51.074;3.788;2024-01-15T10:35:27;4.30;99.90
27226;DHT22;14732;51.074;3.788;2024-01-15T10:37:53;4.30;99.90
27226;DHT22;14732;51.074;3.788;2024-01-15T10:40:20;4.30;99.90
27226;DHT22;14732;51.074;3.788;2024-01-15T10:42:45;4.30;99.90
27226;DHT22;14732;51.074;3.788;2024-01-15T10:45:16;4.30;99.90
27226;DHT22;14732;51.074;3.788;2024-01-15T10:47:43;4.30;99.90
27226;DHT22;14732;51.074;3.788;2024-01-15T10:50:09;4.30;99.90
27226;DHT22;14732;51.074;3.788;2024-01-15T10:52:36;4.30;99.90
27226;DHT22;14732;51.074;3.788;2024-01-15T10:55:03;4.20;99.90
27226;DHT22;14732;51.074;3.788;2024-01-15T10:57:32;4.20;99.90
27226;DHT22;14732;51.074;3.788;2024-01-15T10:59:58;4.30;99.90
27226;DHT22;14732;51.074;3.788;2024-01-15T11:02:25;4.40;99.90
27226;DHT22;14732;51.074;3.788;2024-01-15T11:04:51;4.30;99.90
27226;DHT22;14732;51.074;3.788;2024-01-15T11:07:17;4.40;99.90
27226;DHT22;14732;51.074;3.788;2024-01-15T11:09:43;4.50;99.90
27226;DHT22;14732;51.074;3.788;2024-01-15T11:12:13;4.50;99.90
27226;DHT22;14732;51.074;3.788;2024-01-15T11:14:49;4.70;99.90
27226;DHT22;14732;51.074;3.788;2024-01-15T11:17:16;4.70;99.90
27226;DHT22;14732;51.074;3.788;2024-01-15T11:22:10;4.60;99.90
27226;DHT22;14732;51.074;3.788;2024-01-15T11:24:40;4.40;99.90
27226;DHT22;14732;51.074;3.788;2024-01-15T11:27:07;4.40;99.90
27226;DHT22;14732;51.074;3.788;2024-01-15T11:29:35;4.60;99.90
27226;DHT22;14732;51.074;3.788;2024-01-15T11:32:02;4.80;99.90
27226;DHT22;14732;51.074;3.788;2024-01-15T11:35:01;4.90;99.90
27226;DHT22;14732;51.074;3.788;2024-01-15T11:40:37;4.80;99.90
27226;DHT22;14732;51.074;3.788;2024-01-15T11:43:07;4.90;99.90
27226;DHT22;14732;51.074;3.788;2024-01-15T11:45:35;4.80;99.90
27226;DHT22;14732;51.074;3.788;2024-01-15T11:48:13;4.80;99.90
27226;DHT22;14732;51.074;3.788;2024-01-15T11:50:44;4.80;99.90
27226;DHT22;14732;51.074;3.788;2024-01-15T11:53:33;5.00;99.90
27226;DHT22;14732;51.074;3.788;2024-01-15T11:56:03;5.20;99.90
27226;DHT22;14732;51.074;3.788;2024-01-15T11:58:29;5.30;99.90
27226;DHT22;14732;51.074;3.788;2024-01-15T12:00:55;5.20;99.90
27226;DHT22;14732;51.074;3.788;2024-01-15T12:03:22;5.10;99.90
27226;DHT22;14732;51.074;3.788;2024-01-15T12:05:48;5.20;99.90
27226;DHT22;14732;51.074;3.788;2024-01-15T12:08:13;5.30;99.90
27226;DHT22;14732;51.074;3.788;2024-01-15T12:10:40;5.30;99.90
27226;DHT22;14732;51.074;3.788;2024-01-15T12:13:16;5.40;99.90
27226;DHT22;14732;51.074;3.788;2024-01-15T12:15:44;5.10;99.90
27226;DHT22;14732;51.074;3.788;2024-01-15T12:18:14;5.10;99.90
27226;DHT22;14732;51.074;3.788;2024-01-15T12:20:41;5.20;99.90
27226;DHT22;14732;51.074;3.788;2024-01-15T12:23:08;5.10;99.90
27226;DHT22;14732;51.074;3.788;2024-01-15T12:25:34;5.00;99.90
27226;DHT22;14732;51.074;3.788;2024-01-15T12:28:00;4.80;99.90
27226;DHT22;14732;51.074;3.788;2024-01-15T12:30:27;5.00;99.90
27226;DHT22;14732;51.074;3.788;2024-01-15T12:32:55;5.00;99.90
27226;DHT22;14732;51.074;3.788;2024-01-15T12:35:21;5.10;99.90
27226;DHT22;14732;51.074;3.788;2024-01-15T12:37:47;5.10;99.90
27226;DHT22;14732;51.074;3.788;2024-01-15T12:40:14;5.40;99.90
27226;DHT22;14732;51.074;3.788;2024-01-15T12:42:43;5.50;99.90
27226;DHT22;14732;51.074;3.788;2024-01-15T12:45:11;5.60;99.90
27226;DHT22;14732;51.074;3.788;2024-01-15T12:47:37;5.70;99.90
27226;DHT22;14732;51.074;3.788;2024-01-15T12:50:09;5.60;99.90
27226;DHT22;14732;51.074;3.788;2024-01-15T12:52:35;5.50;99.90
27226;DHT22;14732;51.074;3.788;2024-01-15T12:55:04;5.30;99.90
27226;DHT22;14732;51.074;3.788;2024-01-15T12:57:30;5.40;99.90
27226;DHT22;14732;51.074;3.788;2024-01-15T12:59:55;5.20;99.90
27226;DHT22;14732;51.074;3.788;2024-01-15T13:02:22;5.20;99.90
27226;DHT22;14732;51.074;3.788;2024-01-15T13:04:48;5.30;99.90
27226;DHT22;14732;51.074;3.788;2024-01-15T13:07:14;5.30;99.90
27226;DHT22;14732;51.074;3.788;2024-01-15T13:09:39;5.30;99.90
27226;DHT22;14732;51.074;3.788;2024-01-15T13:12:05;5.30;99.90
27226;DHT22;14732;51.074;3.788;2024-01-15T13:14:31;5.20;99.90
27226;DHT22;14732;51.074;3.788;2024-01-15T13:16:58;5.20;99.90
27226;DHT22;14732;51.074;3.788;2024-01-15T13:19:25;4.70;99.90
27226;DHT22;14732;51.074;3.788;2024-01-15T13:21:50;4.50;99.90
27226;DHT22;14732;51.074;3.788;2024-01-15T13:24:17;4.50;99.90
27226;DHT22;14732;51.074;3.788;2024-01-15T13:26:43;4.60;99.90
27226;DHT22;14732;51.074;3.788;2024-01-15T13:29:12;4.60;99.90
27226;DHT22;14732;51.074;3.788;2024-01-15T13:31:39;4.60;99.90
27226;DHT22;14732;51.074;3.788;2024-01-15T13:34:04;4.50;99.90
27226;DHT22;14732;51.074;3.788;2024-01-15T13:36:31;4.30;99.90
27226;DHT22;14732;51.074;3.788;2024-01-15T13:38:57;4.10;99.90
27226;DHT22;14732;51.074;3.788;2024-01-15T13:41:24;4.20;99.90
27226;DHT22;14732;51.074;3.788;2024-01-15T13:43:54;4.20;99.90
27226;DHT22;14732;51.074;3.788;2024-01-15T13:46:29;4.40;99.90
27226;DHT22;14732;51.074;3.788;2024-01-15T13:48:59;4.50;99.90
27226;DHT22;14732;51.074;3.788;2024-01-15T13:51:25;4.70;99.90
27226;DHT22;14732;51.074;3.788;2024-01-15T13:53:51;4.90;99.90
27226;DHT22;14732;51.074;3.788;2024-01-15T13:56:16;5.00;99.90
27226;DHT22;14732;51.074;3.788;2024-01-15T13:58:42;5.10;99.90
27226;DHT22;14732;51.074;3.788;2024-01-15T14:01:08;5.10;99.90
27226;DHT22;14732;51.074;3.788;2024-01-15T14:03:34;5.10;99.90
27226;DHT22;14732;51.074;3.788;2024-01-15T14:06:00;5.00;99.90
27226;DHT22;14732;51.074;3.788;2024-01-15T14:08:28;5.10;99.90
27226;DHT22;14732;51.074;3.788;2024-01-15T14:10:54;5.30;99.90
27226;DHT22;14732;51.074;3.788;2024-01-15T14:13:21;5.80;99.90
27226;DHT22;14732;51.074;3.788;2024-01-15T14:15:47;5.80;99.90
27226;DHT22;14732;51.074;3.788;2024-01-15T14:18:16;5.90;99.90
27226;DHT22;14732;51.074;3.788;2024-01-15T14:20:41;5.70;99.90
27226;DHT22;14732;51.074;3.788;2024-01-15T14:23:08;5.60;99.90
27226;DHT22;14732;51.074;3.788;2024-01-15T14:25:33;5.40;99.90
27226;DHT22;14732;51.074;3.788;2024-01-15T14:27:59;5.40;99.90
27226;DHT22;14732;51.074;3.788;2024-01-15T14:30:25;5.20;99.90
27226;DHT22;14732;51.074;3.788;2024-01-15T14:32:51;5.30;99.90
27226;DHT22;14732;51.074;3.788;2024-01-15T14:35:17;5.10;99.90
27226;DHT22;14732;51.074;3.788;2024-01-15T14:37:42;5.10;99.90
27226;DHT22;14732;51.074;3.788;2024-01-15T14:40:08;5.10;99.90
27226;DHT22;14732;51.074;3.788;2024-01-15T14:42:36;4.90;99.90
27226;DHT22;14732;51.074;3.788;2024-01-15T14:45:05;4.70;99.90
27226;DHT22;14732;51.074;3.788;2024-01-15T14:47:39;4.60;99.90
27226;DHT22;14732;51.074;3.788;2024-01-15T14:50:07;4.70;99.90
27226;DHT22;14732;51.074;3.788;2024-01-15T14:52:32;4.60;99.90
27226;DHT22;14732;51.074;3.788;2024-01-15T14:54:59;4.70;99.90
27226;DHT22;14732;51.074;3.788;2024-01-15T14:57:25;4.60;99.90
27226;DHT22;14732;51.074;3.788;2024-01-15T14:59:50;4.40;99.90
27226;DHT22;14732;51.074;3.788;2024-01-15T15:02:16;4.20;99.90
27226;DHT22;14732;51.074;3.788;2024-01-15T15:04:43;4.20;99.90
27226;DHT22;14732;51.074;3.788;2024-01-15T15:07:09;4.10;99.90
27226;DHT22;14732;51.074;3.788;2024-01-15T15:09:36;4.10;99.90
27226;DHT22;14732;51.074;3.788;2024-01-15T15:12:03;4.10;99.90
27226;DHT22;14732;51.074;3.788;2024-01-15T15:14:30;4.00;99.90
27226;DHT22;14732;51.074;3.788;2024-01-15T15:16:57;3.90;99.90
27226;DHT22;14732;51.074;3.788;2024-01-15T15:19:23;3.80;99.90
27226;DHT22;14732;51.074;3.788;2024-01-15T15:21:49;3.90;99.90
27226;DHT22;14732;51.074;3.788;2024-01-15T15:24:14;3.90;99.90
27226;DHT22;14732;51.074;3.788;2024-01-15T15:26:40;3.90;99.90
27226;DHT22;14732;51.074;3.788;2024-01-15T15:29:06;3.90;99.90
27226;DHT22;14732;51.074;3.788;2024-01-15T15:31:32;3.80;99.90
27226;DHT22;14732;51.074;3.788;2024-01-15T15:33:57;3.60;99.90
27226;DHT22;14732;51.074;3.788;2024-01-15T15:36:23;3.40;99.90
27226;DHT22;14732;51.074;3.788;2024-01-15T15:38:49;3.30;99.90
27226;DHT22;14732;51.074;3.788;2024-01-15T15:41:14;3.40;99.90
27226;DHT22;14732;51.074;3.788;2024-01-15T15:43:40;3.60;99.90
27226;DHT22;14732;51.074;3.788;2024-01-15T15:46:06;3.60;99.90